Time;durP1;ratioP1;P1;durP2;ratioP2;P2;SDS_P1;SDS_P2;PMS_P1;PMS_P2;Temp;Humidity;BMP_temperature;BMP_pressure;BME280_temperature;BME280_humidity;BME280_pressure;Samples;Min_cycle;Max_cycle;Signal;HPM_P1;HPM_P2
2023/07/23 00:01:06;;;;;;;0.20;0.20;;;;;;;17.22;100.00;99973.05;90902;1278;137821;-73
2023/07/23 00:03:07;;;;;;;0.10;0.10;;;;;;;17.13;100.00;99973.95;90962;1275;22363;-74
2023/07/23 00:05:09;;;;;;;0.50;0.10;;;;;;;17.03;100.00;99971.66;90791;1275;139197;-72
2023/07/23 00:07:11;;;;;;;0.10;0.10;;;;;;;16.97;100.00;99973.15;91003;1275;23143;-72
2023/07/23 00:09:13;;;;;;;1.80;0.30;;;;;;;16.93;100.00;99979.00;90878;1275;139311;-72
2023/07/23 00:11:14;;;;;;;0.20;0.10;;;;;;;16.89;100.00;99980.70;90978;1276;22146;-72
2023/07/23 00:13:16;;;;;;;0.20;0.20;;;;;;;16.86;100.00;99983.70;91022;1276;138105;-72
2023/07/23 00:15:18;;;;;;;2.20;1.80;;;;;;;16.88;100.00;99987.30;91156;1279;22222;-72
2023/07/23 00:17:21;;;;;;;2.90;0.70;;;;;;;16.91;100.00;99985.10;90999;1273;137554;-72
2023/07/23 00:19:23;;;;;;;1.00;0.20;;;;;;;16.92;100.00;99982.13;91153;1275;23120;-72
2023/07/23 00:21:27;;;;;;;0.20;0.20;;;;;;;16.92;100.00;99981.63;91003;1277;138567;-70
2023/07/23 00:23:29;;;;;;;0.10;0.10;;;;;;;16.92;100.00;99985.29;91098;1275;22972;-70
2023/07/23 00:25:31;;;;;;;0.50;0.10;;;;;;;16.91;100.00;99984.34;91005;1272;137787;-71
2023/07/23 00:27:32;;;;;;;0.30;0.30;;;;;;;16.90;100.00;99982.98;91121;1272;22328;-73
2023/07/23 00:29:34;;;;;;;0.30;0.10;;;;;;;16.90;100.00;99987.46;90966;1275;138602;-72
2023/07/23 00:31:36;;;;;;;0.20;0.10;;;;;;;16.91;100.00;99989.20;91057;1269;22141;-73
2023/07/23 00:33:38;;;;;;;2.50;0.20;;;;;;;16.88;100.00;99993.17;91042;1262;138033;-71
2023/07/23 00:35:40;;;;;;;0.40;0.20;;;;;;;16.85;100.00;99996.07;91170;1275;22242;-73
2023/07/23 00:37:42;;;;;;;0.20;0.20;;;;;;;16.83;100.00;99996.56;91049;1276;137895;-72
2023/07/23 00:39:44;;;;;;;0.50;0.50;;;;;;;16.82;100.00;99995.25;91178;1275;22962;-73
2023/07/23 00:41:45;;;;;;;1.80;1.50;;;;;;;16.81;100.00;99997.47;91080;1275;137708;-72
2023/07/23 00:43:47;;;;;;;0.70;0.30;;;;;;;16.81;100.00;100004.48;91160;1273;22339;-72
2023/07/23 00:45:49;;;;;;;0.60;0.30;;;;;;;16.81;100.00;100003.49;91087;1278;138891;-73
2023/07/23 00:47:51;;;;;;;2.20;2.10;;;;;;;16.79;100.00;100003.14;91156;1272;22223;-72
2023/07/23 00:49:52;;;;;;;0.70;0.70;;;;;;;16.80;100.00;100006.48;91006;1279;137806;-72
2023/07/23 00:51:54;;;;;;;0.50;0.50;;;;;;;16.82;100.00;100008.02;91175;1275;22335;-72
2023/07/23 00:53:56;;;;;;;1.70;0.90;;;;;;;16.80;100.00;100011.76;91074;1272;137640;-72
2023/07/23 00:55:59;;;;;;;0.30;0.30;;;;;;;16.82;100.00;100011.90;91184;1272;22214;-72
2023/07/23 00:58:01;;;;;;;0.30;0.20;;;;;;;16.84;100.00;100015.05;91018;1280;138648;-72
2023/07/23 01:00:07;;;;;;;0.70;0.30;;;;;;;16.83;100.00;100013.77;90979;1275;22377;-72
2023/07/23 01:02:09;;;;;;;0.40;0.20;;;;;;;16.82;100.00;100018.30;91077;1278;22228;-71
2023/07/23 01:04:10;;;;;;;0.30;0.30;;;;;;;16.83;100.00;100023.47;90935;1278;138207;-71
2023/07/23 01:06:13;;;;;;;0.20;0.20;;;;;;;16.86;100.00;100022.80;90994;1266;22361;-71
2023/07/23 01:08:15;;;;;;;0.80;0.10;;;;;;;16.88;100.00;100025.37;90966;1262;138896;-71
2023/07/23 01:10:19;;;;;;;1.80;0.10;;;;;;;16.86;100.00;100019.70;91139;1272;22225;-71
2023/07/23 01:12:21;;;;;;;2.40;2.30;;;;;;;16.85;100.00;100022.83;91078;1272;138610;-71
2023/07/23 01:14:23;;;;;;;0.90;0.90;;;;;;;16.87;100.00;100022.44;91060;1277;22337;-71
2023/07/23 01:16:27;;;;;;;0.20;0.20;;;;;;;16.95;100.00;100027.92;91039;1278;138611;-72
2023/07/23 01:18:29;;;;;;;3.20;0.60;;;;;;;16.97;100.00;100032.23;91213;1275;22748;-70
2023/07/23 01:20:31;;;;;;;0.90;0.20;;;;;;;16.90;100.00;100034.52;91089;1278;139058;-71
2023/07/23 01:22:35;;;;;;;1.10;0.60;;;;;;;16.84;100.00;100031.80;91203;1272;22179;-72
2023/07/23 01:24:36;;;;;;;0.70;0.20;;;;;;;16.80;100.00;100033.20;91101;1278;138987;-72
2023/07/23 01:26:38;;;;;;;0.20;0.10;;;;;;;16.75;100.00;100033.45;91188;1275;23073;-72
2023/07/23 01:28:40;;;;;;;0.50;0.10;;;;;;;16.72;100.00;100038.77;90924;1273;138424;-73
2023/07/23 01:30:41;;;;;;;0.50;0.50;;;;;;;16.68;100.00;100033.25;91155;1279;22199;-71
2023/07/23 01:32:44;;;;;;;0.10;0.10;;;;;;;16.66;100.00;100030.80;91099;1275;138096;-71
2023/07/23 01:34:46;;;;;;;0.10;0.10;;;;;;;16.65;100.00;100031.69;91223;1270;22251;-71
2023/07/23 01:36:49;;;;;;;0.30;0.10;;;;;;;16.64;100.00;100029.51;91056;1272;138240;-72
2023/07/23 01:38:51;;;;;;;0.20;0.10;;;;;;;16.63;100.00;100033.96;91186;1279;23105;-73
2023/07/23 01:40:53;;;;;;;0.10;0.10;;;;;;;16.60;100.00;100036.25;91073;1269;139652;-74
2023/07/23 01:42:55;;;;;;;1.60;0.10;;;;;;;16.61;100.00;100037.08;91173;1273;22462;-74
2023/07/23 01:45:02;;;;;;;0.30;0.20;;;;;;;16.62;100.00;100035.77;91088;1269;138165;-73
2023/07/23 01:47:04;;;;;;;0.80;0.70;;;;;;;16.56;100.00;100019.27;91087;1272;22425;-74
2023/07/23 01:49:06;;;;;;;0.40;0.30;;;;;;;16.64;100.00;100033.44;91004;1272;138348;-75
2023/07/23 01:51:10;;;;;;;0.40;0.20;;;;;;;16.70;100.00;100036.02;91153;1279;22317;-73
2023/07/23 01:53:11;;;;;;;0.30;0.10;;;;;;;16.77;100.00;100040.16;91017;1268;138285;-74
2023/07/23 01:55:13;;;;;;;2.30;0.10;;;;;;;16.78;100.00;100038.95;91155;1276;22811;-74
2023/07/23 01:57:15;;;;;;;0.70;0.70;;;;;;;16.75;100.00;100044.97;91024;1273;140074;-73
2023/07/23 01:59:16;;;;;;;0.40;0.30;;;;;;;16.72;100.00;100047.71;91088;1260;22372;-74
2023/07/23 02:01:18;;;;;;;1.00;0.10;;;;;;;16.73;100.00;100044.25;90951;1278;141728;-73
2023/07/23 02:03:20;;;;;;;0.60;0.20;;;;;;;16.73;100.00;100039.19;91120;1272;22229;-72
2023/07/23 02:05:22;;;;;;;0.40;0.20;;;;;;;16.73;100.00;100039.98;90964;1272;138434;-72
2023/07/23 02:07:24;;;;;;;0.10;0.10;;;;;;;16.73;100.00;100043.64;91112;1275;22215;-72
2023/07/23 02:09:25;;;;;;;0.10;0.10;;;;;;;16.72;100.00;100047.29;91020;1268;138547;-74
2023/07/23 02:11:27;;;;;;;0.70;0.20;;;;;;;16.70;100.00;100050.58;91079;1275;22394;-73
2023/07/23 02:13:29;;;;;;;0.30;0.20;;;;;;;16.66;100.00;100052.05;90983;1279;138548;-74
2023/07/23 02:15:31;;;;;;;0.60;0.20;;;;;;;16.63;100.00;100049.08;91074;1278;22290;-74
2023/07/23 02:17:33;;;;;;;0.60;0.30;;;;;;;16.62;100.00;100047.44;91012;1261;138634;-74
2023/07/23 02:19:36;;;;;;;0.10;0.10;;;;;;;16.63;100.00;100046.98;91184;1275;22211;-73
2023/07/23 02:21:38;;;;;;;0.90;0.20;;;;;;;16.63;100.00;100045.30;90942;1262;138476;-73
2023/07/23 02:23:40;;;;;;;0.80;0.20;;;;;;;16.61;100.00;100041.38;91190;1276;22218;-74
2023/07/23 02:25:42;;;;;;;0.30;0.20;;;;;;;16.58;100.00;100039.77;90964;1273;138366;-74
2023/07/23 02:27:44;;;;;;;1.60;0.20;;;;;;;16.55;100.00;100040.41;91138;1262;22328;-73
2023/07/23 02:29:46;;;;;;;0.50;0.40;;;;;;;16.52;100.00;100040.02;91007;1262;138888;-73
2023/07/23 02:31:48;;;;;;;1.90;0.40;;;;;;;16.50;100.00;100040.27;91023;1272;22546;-71
2023/07/23 02:33:50;;;;;;;0.20;0.20;;;;;;;16.51;100.00;100041.42;91039;1271;139075;-72
2023/07/23 02:35:52;;;;;;;1.80;0.30;;;;;;;16.52;100.00;100044.15;91165;1278;22316;-72
2023/07/23 02:37:53;;;;;;;0.70;0.30;;;;;;;16.54;100.00;100047.91;90902;1276;138746;-72
2023/07/23 02:39:55;;;;;;;3.90;0.10;;;;;;;16.56;100.00;100050.86;91061;1275;22293;-72
2023/07/23 02:41:56;;;;;;;0.30;0.30;;;;;;;16.55;100.00;100049.67;91000;1279;138212;-72
2023/07/23 02:43:58;;;;;;;0.30;0.30;;;;;;;16.55;100.00;100053.14;91031;1272;22242;-70
2023/07/23 02:46:00;;;;;;;0.20;0.20;;;;;;;16.54;100.00;100054.33;90990;1279;139956;-72
2023/07/23 02:48:02;;;;;;;0.20;0.20;;;;;;;16.52;100.00;100057.89;91131;1276;22166;-71
2023/07/23 02:50:04;;;;;;;0.70;0.20;;;;;;;16.49;100.00;100061.69;91162;1269;22239;-71
2023/07/23 02:52:06;;;;;;;1.80;0.30;;;;;;;16.50;100.00;100061.98;91047;1279;139703;-73
2023/07/23 02:54:08;;;;;;;0.30;0.30;;;;;;;16.53;100.00;100061.60;91081;1269;22224;-73
2023/07/23 02:56:10;;;;;;;0.80;0.20;;;;;;;16.55;100.00;100066.02;91011;1278;138271;-73
2023/07/23 02:58:12;;;;;;;0.20;0.20;;;;;;;16.58;100.00;100067.42;91145;1278;22228;-72
2023/07/23 03:00:14;;;;;;;0.40;0.20;;;;;;;16.59;100.00;100069.98;90936;1273;138570;-74
2023/07/23 03:02:15;;;;;;;2.30;0.30;;;;;;;16.59;100.00;100078.64;91138;1278;22682;-73
2023/07/23 03:04:17;;;;;;;0.70;0.30;;;;;;;16.59;100.00;100080.16;90861;1276;138656;-70
2023/07/23 03:06:19;;;;;;;0.60;0.30;;;;;;;16.61;100.00;100084.34;91037;1278;22431;-72
2023/07/23 03:08:21;;;;;;;0.30;0.20;;;;;;;16.62;100.00;100090.38;90917;1277;138655;-72
2023/07/23 03:10:22;;;;;;;0.40;0.30;;;;;;;16.62;100.00;100091.98;91078;1279;22362;-71
2023/07/23 03:12:24;;;;;;;0.70;0.70;;;;;;;16.62;100.00;100091.45;90995;1277;138712;-71
2023/07/23 03:14:26;;;;;;;1.00;0.30;;;;;;;16.61;100.00;100095.27;91091;1272;22176;-71
2023/07/23 03:16:27;;;;;;;2.00;0.40;;;;;;;16.62;100.00;100097.32;91068;1275;138933;-71
2023/07/23 03:18:30;;;;;;;0.90;0.50;;;;;;;16.63;100.00;100097.88;91183;1277;22945;-71
2023/07/23 03:20:31;;;;;;;0.30;0.30;;;;;;;16.63;100.00;100098.05;91066;1275;139593;-73
2023/07/23 03:22:35;;;;;;;0.40;0.20;;;;;;;16.63;100.00;100103.39;91140;1271;22780;-71
2023/07/23 03:24:38;;;;;;;1.80;0.30;;;;;;;16.62;100.00;100107.38;91063;1272;138542;-71
2023/07/23 03:26:40;;;;;;;0.40;0.30;;;;;;;16.61;100.00;100111.08;91176;1276;22227;-70
2023/07/23 03:28:41;;;;;;;0.90;0.40;;;;;;;16.62;100.00;100116.73;91001;1279;138353;-71
2023/07/23 03:30:43;;;;;;;0.30;0.30;;;;;;;16.61;100.00;100117.48;91178;1276;22218;-71
2023/07/23 03:32:45;;;;;;;0.90;0.30;;;;;;;16.60;100.00;100118.15;90982;1273;139091;-71
2023/07/23 03:34:47;;;;;;;0.50;0.40;;;;;;;16.60;100.00;100119.02;90972;1274;22434;-70
2023/07/23 03:36:48;;;;;;;1.80;0.50;;;;;;;16.61;100.00;100121.14;91011;1272;138336;-71
2023/07/23 03:38:50;;;;;;;1.50;0.40;;;;;;;16.62;100.00;100117.35;91165;1279;22460;-70
2023/07/23 03:40:52;;;;;;;2.00;0.40;;;;;;;16.67;100.00;100120.00;90967;1273;140396;-71
2023/07/23 03:42:54;;;;;;;0.90;0.50;;;;;;;16.73;100.00;100116.91;90997;1281;23003;-70
2023/07/23 03:44:55;;;;;;;0.50;0.50;;;;;;;16.79;100.00;100111.27;91044;1278;140555;-70
2023/07/23 03:47:23;;;;;;;0.70;0.30;;;;;;;16.86;100.00;100115.92;91068;1273;22342;-71
2023/07/23 03:49:25;;;;;;;0.40;0.40;;;;;;;17.00;100.00;100117.09;90966;1266;139007;-70
2023/07/23 03:51:27;;;;;;;0.70;0.50;;;;;;;17.10;100.00;100118.92;91115;1275;22127;-71
2023/07/23 03:53:29;;;;;;;0.80;0.30;;;;;;;17.18;100.00;100121.63;91038;1277;138789;-72
2023/07/23 03:55:32;;;;;;;1.40;0.40;;;;;;;17.27;100.00;100117.47;91091;1279;22236;-72
2023/07/23 03:57:34;;;;;;;0.70;0.30;;;;;;;17.36;100.00;100115.42;90855;1281;139256;-71
2023/07/23 03:59:41;;;;;;;0.70;0.20;;;;;;;17.46;100.00;100114.73;91126;1273;22216;-71
2023/07/23 04:01:43;;;;;;;0.60;0.60;;;;;;;17.55;100.00;100108.58;90755;1269;138417;-71
2023/07/23 04:03:45;;;;;;;1.10;1.00;;;;;;;17.64;100.00;100114.41;91012;1273;23060;-71
2023/07/23 04:05:47;;;;;;;1.00;0.60;;;;;;;17.77;100.00;100121.65;90944;1272;140595;-70
2023/07/23 04:07:49;;;;;;;0.60;0.60;;;;;;;17.83;100.00;100115.67;90966;1276;22388;-71
2023/07/23 04:09:50;;;;;;;0.80;0.60;;;;;;;17.88;100.00;100115.91;90910;1272;139792;-70
2023/07/23 04:11:52;;;;;;;1.20;0.40;;;;;;;17.94;100.00;100111.92;91039;1273;22292;-71
2023/07/23 04:13:54;;;;;;;1.10;0.60;;;;;;;18.03;100.00;100112.45;90839;1272;137818;-72
2023/07/23 04:15:55;;;;;;;0.90;0.40;;;;;;;18.14;100.00;100114.35;91048;1272;22378;-72
2023/07/23 04:17:57;;;;;;;0.50;0.30;;;;;;;18.32;100.00;100115.73;90925;1273;138158;-71
2023/07/23 04:19:59;;;;;;;1.30;0.70;;;;;;;18.51;100.00;100119.23;90939;1274;22432;-72
2023/07/23 04:22:01;;;;;;;3.00;0.60;;;;;;;18.78;100.00;100120.36;90936;1273;139142;-71
2023/07/23 04:24:03;;;;;;;0.30;0.20;;;;;;;19.14;100.00;100124.31;90893;1272;138761;-71
2023/07/23 04:26:04;;;;;;;0.60;0.50;;;;;;;19.42;100.00;100126.29;91015;1260;22872;-71
2023/07/23 04:28:06;;;;;;;0.30;0.30;;;;;;;19.51;100.00;100124.23;90842;1275;138935;-71
2023/07/23 04:30:08;;;;;;;0.70;0.50;;;;;;;19.48;100.00;100123.70;90964;1273;22319;-71
2023/07/23 04:32:10;;;;;;;2.10;0.50;;;;;;;19.40;100.00;100120.27;90792;1270;140021;-71
2023/07/23 04:34:12;;;;;;;0.40;0.40;;;;;;;19.33;100.00;100126.44;90980;1273;23015;-71
2023/07/23 04:36:14;;;;;;;0.90;0.90;;;;;;;19.24;100.00;100126.88;90980;1272;140465;-71
2023/07/23 04:38:16;;;;;;;0.70;0.50;;;;;;;19.12;100.00;100126.89;90884;1273;23072;-71
2023/07/23 04:40:18;;;;;;;0.80;0.40;;;;;;;19.09;100.00;100127.02;90860;1260;140320;-71
2023/07/23 04:42:20;;;;;;;1.10;0.60;;;;;;;19.07;100.00;100130.33;90963;1273;22334;-70
2023/07/23 04:44:23;;;;;;;1.30;0.40;;;;;;;19.10;100.00;100134.02;90992;1272;138387;-71
2023/07/23 04:46:24;;;;;;;0.50;0.40;;;;;;;19.09;100.00;100135.81;91073;1272;23047;-71
2023/07/23 04:48:26;;;;;;;2.30;0.70;;;;;;;19.05;100.00;100138.36;90877;1274;139588;-71
2023/07/23 04:50:28;;;;;;;0.90;0.70;;;;;;;18.99;100.00;100135.40;91086;1272;22472;-72
2023/07/23 04:52:29;;;;;;;0.60;0.60;;;;;;;18.93;100.00;100127.97;90976;1274;139836;-71
2023/07/23 04:54:31;;;;;;;0.80;0.80;;;;;;;18.95;100.00;100131.73;91096;1275;22316;-72
2023/07/23 04:56:33;;;;;;;1.40;1.30;;;;;;;19.01;100.00;100136.47;90994;1273;140272;-71
2023/07/23 04:58:34;;;;;;;1.20;1.10;;;;;;;19.05;100.00;100136.14;90943;1276;22181;-71
2023/07/23 05:00:36;;;;;;;1.60;1.50;;;;;;;19.15;100.00;100135.13;90925;1273;139640;-71
2023/07/23 05:02:38;;;;;;;7.70;6.00;;;;;;;19.23;100.00;100135.67;91129;1272;22374;-71
2023/07/23 05:04:39;;;;;;;5.30;4.70;;;;;;;19.24;100.00;100131.16;91018;1273;140689;-71
2023/07/23 05:06:41;;;;;;;4.70;4.30;;;;;;;19.33;100.00;100127.36;91127;1272;22288;-70
2023/07/23 05:08:43;;;;;;;4.30;3.90;;;;;;;19.37;100.00;100130.98;91002;1273;138299;-71
2023/07/23 05:10:45;;;;;;;4.60;4.30;;;;;;;19.33;100.00;100135.20;90982;1273;22330;-71
2023/07/23 05:12:47;;;;;;;2.30;2.10;;;;;;;19.25;100.00;100131.77;90960;1272;138243;-71
2023/07/23 05:14:49;;;;;;;2.10;2.00;;;;;;;19.17;100.00;100132.41;91062;1273;22293;-71
2023/07/23 05:16:51;;;;;;;1.80;1.60;;;;;;;19.13;100.00;100126.95;91030;1273;138515;-70
2023/07/23 05:18:52;;;;;;;3.00;2.90;;;;;;;19.12;100.00;100122.55;90901;1274;23290;-70
2023/07/23 05:20:54;;;;;;;7.50;6.90;;;;;;;19.07;100.00;100116.35;91021;1273;139060;-70
2023/07/23 05:22:56;;;;;;;2.80;2.60;;;;;;;19.07;100.00;100110.45;91150;1272;22223;-70
2023/07/23 05:24:57;;;;;;;2.20;2.00;;;;;;;19.17;100.00;100113.39;91001;1272;140155;-70
2023/07/23 05:27:00;;;;;;;3.40;3.10;;;;;;;19.26;100.00;100106.48;91101;1272;22336;-70
2023/07/23 05:29:01;;;;;;;1.70;1.50;;;;;;;19.37;100.00;100113.15;91008;1272;139709;-71
2023/07/23 05:31:03;;;;;;;1.20;1.10;;;;;;;19.47;100.00;100109.27;91147;1273;22957;-70
2023/07/23 05:33:05;;;;;;;3.00;2.80;;;;;;;19.62;100.00;100108.34;90946;1272;138388;-71
2023/07/23 05:35:09;;;;;;;2.30;2.20;;;;;;;19.77;100.00;100108.38;91126;1272;22316;-70
2023/07/23 05:37:11;;;;;;;2.80;2.70;;;;;;;19.94;100.00;100111.20;91044;1272;139534;-70
2023/07/23 05:39:13;;;;;;;2.80;2.40;;;;;;;20.12;100.00;100112.83;90956;1273;22382;-70
2023/07/23 05:41:14;;;;;;;1.90;1.80;;;;;;;20.33;100.00;100119.23;90911;1265;139905;-70
2023/07/23 05:43:17;;;;;;;1.80;1.00;;;;;;;20.63;100.00;100115.94;91146;1272;22212;-70
2023/07/23 05:45:19;;;;;;;1.30;1.20;;;;;;;20.92;100.00;100116.36;91036;1272;138825;-71
2023/07/23 05:47:21;;;;;;;2.60;2.30;;;;;;;21.18;100.00;100122.51;91145;1272;22425;-70
2023/07/23 05:49:22;;;;;;;2.00;1.90;;;;;;;21.32;100.00;100125.22;91025;1273;139574;-69
2023/07/23 05:51:24;;;;;;;2.90;2.80;;;;;;;21.37;100.00;100127.25;91135;1272;22456;-69
2023/07/23 05:53:26;;;;;;;1.20;1.20;;;;;;;21.37;100.00;100128.00;91012;1271;139904;-69
2023/07/23 05:55:27;;;;;;;1.20;1.20;;;;;;;21.35;100.00;100128.31;91132;1273;22462;-70
2023/07/23 05:57:29;;;;;;;1.30;1.20;;;;;;;21.34;100.00;100133.79;91010;1272;139121;-69
2023/07/23 05:59:31;;;;;;;0.80;0.80;;;;;;;21.34;100.00;100135.41;91083;1273;22347;-71
2023/07/23 06:01:36;;;;;;;2.10;2.00;;;;;;;21.32;100.00;100134.81;90948;1272;138671;-70
2023/07/23 06:03:37;;;;;;;6.00;5.60;;;;;;;21.36;100.00;100134.71;91051;1273;22250;-70
2023/07/23 06:05:53;;;;;;;5.00;4.60;;;;;;;21.39;100.00;100135.05;90906;1274;139107;-69
2023/07/23 06:07:55;;;;;;;12.60;11.50;;;;;;;21.38;100.00;100135.17;91149;1272;22915;-70
2023/07/23 06:09:57;;;;;;;3.70;3.60;;;;;;;21.46;100.00;100132.98;90982;1273;138277;-69
2023/07/23 06:11:58;;;;;;;2.60;2.50;;;;;;;21.57;100.00;100134.66;91079;1271;22303;-69
2023/07/23 06:14:00;;;;;;;9.50;8.80;;;;;;;21.66;100.00;100132.46;90947;1273;137921;-69
2023/07/23 06:16:03;;;;;;;4.40;4.10;;;;;;;21.84;100.00;100128.82;91015;1273;140153;-70
2023/07/23 06:18:05;;;;;;;4.80;4.40;;;;;;;21.99;100.00;100127.27;91142;1272;22340;-70
2023/07/23 06:20:07;;;;;;;7.50;6.80;;;;;;;22.14;100.00;100129.09;90934;1272;139790;-69
2023/07/23 06:22:09;;;;;;;14.70;13.60;;;;;;;22.43;100.00;100130.25;91014;1273;23133;-69
2023/07/23 06:24:11;;;;;;;2.50;2.30;;;;;;;22.81;99.89;100127.92;91023;1273;138784;-69
2023/07/23 06:26:13;;;;;;;3.50;1.20;;;;;;;23.14;98.73;100124.65;91135;1272;23091;-68
2023/07/23 06:28:15;;;;;;;1.90;0.50;;;;;;;23.33;96.82;100125.08;90991;1273;137529;-69
2023/07/23 06:30:17;;;;;;;1.10;0.80;;;;;;;23.39;97.02;100127.55;91132;1273;22329;-69
2023/07/23 06:32:18;;;;;;;0.70;0.70;;;;;;;23.41;96.73;100127.05;90985;1267;139401;-70
2023/07/23 06:34:20;;;;;;;1.90;1.20;;;;;;;23.44;95.89;100128.52;91083;1272;22321;-69
2023/07/23 06:36:22;;;;;;;3.70;0.80;;;;;;;23.44;95.92;100132.21;90885;1273;138746;-70
2023/07/23 06:38:24;;;;;;;4.60;1.00;;;;;;;23.36;94.55;100126.98;91076;1272;22334;-69
2023/07/23 06:40:25;;;;;;;0.50;0.40;;;;;;;23.21;95.66;100122.52;90986;1263;137530;-70
2023/07/23 06:42:27;;;;;;;1.10;1.00;;;;;;;23.15;96.23;100122.70;91127;1273;22337;-71
2023/07/23 06:44:29;;;;;;;1.60;1.50;;;;;;;23.15;96.83;100123.73;91020;1272;137608;-70
2023/07/23 06:46:30;;;;;;;1.30;0.90;;;;;;;23.21;96.00;100126.66;91159;1275;22338;-70
2023/07/23 06:48:32;;;;;;;2.20;1.00;;;;;;;23.28;95.23;100127.81;91043;1272;138215;-68
2023/07/23 06:50:34;;;;;;;1.20;0.80;;;;;;;23.32;94.94;100127.05;91082;1273;22416;-68
2023/07/23 06:52:35;;;;;;;1.30;1.00;;;;;;;23.31;96.12;100128.95;91044;1271;138961;-65
2023/07/23 06:54:40;;;;;;;0.80;0.80;;;;;;;23.23;96.25;100129.63;91163;1272;23377;-67
2023/07/23 06:56:42;;;;;;;1.50;1.00;;;;;;;23.17;98.35;100129.05;91017;1261;137452;-70
2023/07/23 06:58:48;;;;;;;0.80;0.80;;;;;;;23.23;96.64;100128.66;91101;1272;22168;-65
2023/07/23 07:00:49;;;;;;;1.30;0.90;;;;;;;23.30;96.91;100130.57;90764;1273;137550;-70
2023/07/23 07:02:51;;;;;;;1.10;0.90;;;;;;;23.43;95.97;100126.77;91147;1272;22339;-67
2023/07/23 07:04:52;;;;;;;1.20;0.70;;;;;;;23.50;94.75;100126.96;90952;1272;138329;-65
2023/07/23 07:06:54;;;;;;;0.80;0.80;;;;;;;23.50;96.01;100128.70;91035;1272;22178;-66
2023/07/23 07:08:56;;;;;;;2.00;0.80;;;;;;;23.56;96.20;100128.95;90987;1272;138808;-67
2023/07/23 07:10:58;;;;;;;1.00;1.00;;;;;;;23.60;95.17;100121.20;91124;1272;22202;-68
2023/07/23 07:13:00;;;;;;;1.70;1.20;;;;;;;23.67;94.42;100125.20;90960;1265;137964;-64
2023/07/23 07:15:02;;;;;;;0.70;0.70;;;;;;;23.60;94.82;100120.65;91099;1272;22362;-65
2023/07/23 07:17:04;;;;;;;1.60;1.50;;;;;;;23.51;94.88;100121.90;90903;1273;138534;-66
2023/07/23 07:19:07;;;;;;;1.10;1.10;;;;;;;23.50;96.09;100124.95;91050;1272;22348;-66
2023/07/23 07:21:09;;;;;;;2.70;1.40;;;;;;;23.62;95.54;100128.31;91021;1272;139012;-66
2023/07/23 07:23:10;;;;;;;1.10;1.10;;;;;;;23.79;95.65;100125.94;91049;1272;22366;-64
2023/07/23 07:25:12;;;;;;;1.80;1.70;;;;;;;23.91;92.72;100129.10;90910;1272;137908;-68
2023/07/23 07:27:15;;;;;;;3.90;2.00;;;;;;;23.89;92.56;100127.10;91089;1273;23051;-66
2023/07/23 07:29:16;;;;;;;1.40;1.40;;;;;;;23.75;93.26;100119.33;90829;1274;139398;-66
2023/07/23 07:31:18;;;;;;;1.20;1.20;;;;;;;23.77;94.02;100130.15;90933;1261;23690;-65
2023/07/23 07:33:20;;;;;;;1.10;1.10;;;;;;;23.75;94.05;100129.82;90937;1273;137264;-65
2023/07/23 07:35:22;;;;;;;1.30;0.90;;;;;;;23.77;93.52;100126.33;91049;1272;23025;-72
2023/07/23 07:37:24;;;;;;;2.10;0.80;;;;;;;23.72;94.01;100125.70;90951;1272;138605;-65
2023/07/23 07:39:26;;;;;;;2.70;1.10;;;;;;;23.60;94.90;100126.58;91070;1272;23165;-65
2023/07/23 07:41:28;;;;;;;1.30;1.00;;;;;;;23.51;95.60;100127.63;90938;1272;139176;-68
2023/07/23 07:43:30;;;;;;;2.50;1.20;;;;;;;23.44;96.06;100126.89;91023;1273;22216;-64
2023/07/23 07:45:31;;;;;;;1.00;1.00;;;;;;;23.36;97.22;100123.44;90997;1272;138196;-64
2023/07/23 07:47:33;;;;;;;2.80;1.50;;;;;;;23.30;98.99;100125.14;91180;1272;23050;-64
2023/07/23 07:49:36;;;;;;;0.70;0.70;;;;;;;23.32;98.87;100127.70;90930;1272;141436;-68
2023/07/23 07:51:39;;;;;;;1.10;1.10;;;;;;;23.44;96.53;100130.02;90947;1275;22218;-67
2023/07/23 07:53:41;;;;;;;2.00;0.80;;;;;;;23.55;96.02;100130.96;90835;1274;138614;-70
2023/07/23 07:55:43;;;;;;;0.90;0.80;;;;;;;23.57;95.35;100134.92;91018;1273;22370;-65
2023/07/23 07:57:45;;;;;;;0.80;0.60;;;;;;;23.47;95.18;100135.68;90820;1261;137260;-66
2023/07/23 07:59:47;;;;;;;0.80;0.80;;;;;;;23.37;95.41;100138.43;91043;1273;22213;-65
2023/07/23 08:01:48;;;;;;;1.20;1.20;;;;;;;23.33;94.82;100141.55;90924;1273;137235;-66
2023/07/23 08:03:50;;;;;;;0.90;0.90;;;;;;;23.32;94.22;100140.75;91042;1272;22214;-65
2023/07/23 08:05:55;;;;;;;1.20;0.80;;;;;;;23.32;95.03;100138.69;91019;1272;137560;-64
2023/07/23 08:07:59;;;;;;;1.30;1.20;;;;;;;23.30;95.71;100142.27;90954;1272;22324;-64
2023/07/23 08:10:00;;;;;;;0.60;0.60;;;;;;;23.23;96.53;100142.08;90927;1273;138425;-69
2023/07/23 08:12:05;;;;;;;2.20;1.30;;;;;;;23.20;97.14;100144.42;91021;1272;137938;-65
2023/07/23 08:14:08;;;;;;;1.10;0.80;;;;;;;23.20;98.08;100145.46;91075;1273;22221;-66
2023/07/23 08:16:13;;;;;;;0.70;0.70;;;;;;;23.23;97.18;100145.52;90856;1259;139154;-65
2023/07/23 08:18:14;;;;;;;;;;;;;;;23.23;96.90;100146.05;91152;1272;22410;-64
2023/07/23 08:20:17;;;;;;;0.80;0.80;;;;;;;23.18;96.98;100146.00;91048;1272;124556;-66
2023/07/23 08:22:18;;;;;;;1.00;0.80;;;;;;;23.13;95.92;100148.48;91149;1259;24192;-65
2023/07/23 08:24:20;;;;;;;0.90;0.90;;;;;;;23.09;96.50;100152.41;91020;1272;138524;-66
2023/07/23 08:26:25;;;;;;;1.50;1.30;;;;;;;23.05;96.50;100147.25;91144;1272;22813;-64
2023/07/23 08:28:29;;;;;;;1.00;1.00;;;;;;;23.03;95.59;100148.32;91038;1272;137727;-64
2023/07/23 08:30:31;;;;;;;1.50;0.90;;;;;;;23.02;96.07;100154.02;91124;1272;23182;-63
2023/07/23 08:32:33;;;;;;;1.30;1.20;;;;;;;23.01;97.20;100154.57;91054;1272;137394;-72
2023/07/23 08:34:36;;;;;;;1.80;1.70;;;;;;;23.02;97.36;100155.84;91157;1272;22332;-65
2023/07/23 08:36:38;;;;;;;1.20;1.10;;;;;;;23.06;96.97;100154.80;91062;1272;138713;-64
2023/07/23 08:38:40;;;;;;;1.60;1.50;;;;;;;23.10;95.44;100156.42;91040;1273;22216;-65
2023/07/23 08:40:44;;;;;;;1.10;1.10;;;;;;;23.11;96.00;100154.80;91029;1272;137517;-65
2023/07/23 08:42:54;;;;;;;1.20;1.20;;;;;;;23.11;97.27;100152.52;91057;1272;22844;-66
2023/07/23 08:45:20;;;;;;;1.30;1.20;;;;;;;23.11;96.27;100160.02;91037;1271;138540;-65
2023/07/23 08:47:23;;;;;;;1.80;0.80;;;;;;;23.11;94.09;100156.38;91164;1272;22207;-64
2023/07/23 08:49:25;;;;;;;1.40;1.40;;;;;;;23.07;94.22;100157.69;91006;1272;138132;-64
2023/07/23 08:51:37;;;;;;;2.40;1.20;;;;;;;23.07;94.21;100154.63;91151;1272;22314;-66
2023/07/23 08:53:39;;;;;;;3.30;1.10;;;;;;;23.10;95.00;100155.40;90901;1273;137996;-63
2023/07/23 08:55:43;;;;;;;1.00;1.00;;;;;;;23.16;93.42;100160.27;91148;1272;22973;-64
2023/07/23 08:57:45;;;;;;;1.40;1.40;;;;;;;23.22;92.97;100156.88;90962;1272;138088;-68
2023/07/23 08:59:46;;;;;;;1.50;1.40;;;;;;;23.28;93.02;100154.41;91080;1272;22212;-68
2023/07/23 09:01:49;;;;;;;1.80;1.60;;;;;;;23.31;92.44;100157.94;91013;1272;138816;-65
2023/07/23 09:03:50;;;;;;;2.30;2.00;;;;;;;23.31;92.84;100159.85;90940;1272;22392;-64
2023/07/23 09:05:52;;;;;;;1.50;1.40;;;;;;;23.29;92.31;100160.23;90993;1272;137363;-64
2023/07/23 09:07:54;;;;;;;2.20;2.10;;;;;;;23.24;93.33;100155.24;90983;1266;22964;-64
2023/07/23 09:09:58;;;;;;;1.20;1.20;;;;;;;23.22;94.83;100157.42;90995;1268;137389;-72
2023/07/23 09:12:03;;;;;;;1.80;1.40;;;;;;;23.23;95.44;100157.59;91105;1272;22384;-65
2023/07/23 09:14:07;;;;;;;1.30;1.20;;;;;;;23.26;95.01;100162.40;91019;1272;22357;-70
2023/07/23 09:16:09;;;;;;;3.30;1.60;;;;;;;23.29;95.03;100159.85;90864;1272;138014;-65
2023/07/23 09:18:11;;;;;;;1.50;1.40;;;;;;;23.36;94.74;100158.47;90956;1273;22436;-66
2023/07/23 09:20:13;;;;;;;1.30;1.10;;;;;;;23.39;92.86;100154.10;90766;1273;138119;-68
2023/07/23 09:22:17;;;;;;;1.80;1.70;;;;;;;23.34;92.65;100154.23;90905;1273;23086;-65